Time;durP1;ratioP1;P1;durP2;ratioP2;P2;SDS_P1;SDS_P2;PMS_P1;PMS_P2;Temp;Humidity;BMP_temperature;BMP_pressure;BME280_temperature;BME280_humidity;BME280_pressure;Samples;Min_cycle;Max_cycle;Signal;HPM_P1;HPM_P2
2022/05/04 00:01:22;;;;;;;8.20;2.90;;;8.40;94.30;;;;;;5074530;28;20614;-58
2022/05/04 00:03:48;;;;;;;10.68;3.22;;;8.40;94.40;;;;;;5058912;28;20632;-57
2022/05/04 00:06:13;;;;;;;10.77;3.05;;;8.40;94.50;;;;;;5078651;28;20056;-57
2022/05/04 00:08:39;;;;;;;11.65;2.60;;;8.40;94.50;;;;;;5056584;28;20072;-57
2022/05/04 00:11:06;;;;;;;7.35;2.80;;;8.40;94.40;;;;;;5077295;28;20040;-56
2022/05/04 00:13:33;;;;;;;11.25;2.92;;;8.40;94.50;;;;;;5071512;28;21808;-57
2022/05/04 00:16:01;;;;;;;9.38;3.00;;;8.40;94.60;;;;;;5058672;28;20342;-56
2022/05/04 00:18:31;;;;;;;8.70;2.85;;;8.40;94.70;;;;;;5076658;28;20040;-57
2022/05/04 00:20:58;;;;;;;13.30;3.28;;;8.40;94.60;;;;;;5063408;28;20055;-57
2022/05/04 00:23:25;;;;;;;8.77;3.00;;;8.40;94.60;;;;;;5077805;28;20518;-58
2022/05/04 00:25:51;;;;;;;11.90;2.95;;;8.40;94.60;;;;;;5074457;27;20387;-57
2022/05/04 00:28:18;;;;;;;8.60;2.92;;;8.40;94.70;;;;;;5067467;28;20052;-57
2022/05/04 00:30:44;;;;;;;8.45;2.80;;;8.40;94.60;;;;;;5044113;28;20084;-57
2022/05/04 00:33:11;;;;;;;9.65;2.85;;;8.40;94.70;;;;;;5079346;28;20171;-57
2022/05/04 00:35:37;;;;;;;9.63;3.08;;;8.40;94.80;;;;;;5083600;28;20508;-58
2022/05/04 00:38:04;;;;;;;11.20;3.08;;;8.40;94.60;;;;;;5080555;28;20070;-57
2022/05/04 00:40:29;;;;;;;12.55;3.33;;;8.40;94.40;;;;;;5076380;27;20051;-58
2022/05/04 00:42:56;;;;;;;15.52;3.30;;;8.40;94.30;;;;;;5075339;28;20054;-56
2022/05/04 00:45:22;;;;;;;11.85;3.15;;;8.40;94.30;;;;;;5064977;28;20468;-57
2022/05/04 00:47:48;;;;;;;11.38;2.80;;;8.40;94.40;;;;;;5083002;28;20043;-56
2022/05/04 00:50:14;;;;;;;14.15;3.70;;;8.40;94.50;;;;;;5083186;28;20051;-58
2022/05/04 00:52:42;;;;;;;13.73;3.70;;;8.40;94.70;;;;;;5081962;28;20036;-58
2022/05/04 00:55:09;;;;;;;11.85;3.55;;;8.40;95.00;;;;;;5082660;28;20047;-56
2022/05/04 01:00:23;;;;;;;13.73;3.17;;;8.30;95.20;;;;;;5083636;28;20150;-57
2022/05/04 01:02:49;;;;;;;14.18;3.13;;;8.30;95.40;;;;;;5079113;28;20044;-57
2022/05/04 01:05:16;;;;;;;11.25;3.08;;;8.30;95.60;;;;;;5065868;28;20506;-56
2022/05/04 01:07:43;;;;;;;7.05;3.03;;;8.30;95.60;;;;;;5081568;28;20136;-56
2022/05/04 01:10:11;;;;;;;12.60;3.08;;;8.30;95.70;;;;;;5082230;28;20050;-58
2022/05/04 01:12:51;;;;;;;10.68;2.90;;;8.30;95.60;;;;;;5082812;28;20047;-57
2022/05/04 01:15:19;;;;;;;11.77;3.63;;;8.30;95.60;;;;;;5082182;28;20044;-57
2022/05/04 01:17:47;;;;;;;9.30;3.42;;;8.30;95.60;;;;;;5081898;28;20122;-57
2022/05/04 01:20:15;;;;;;;9.65;3.38;;;8.30;95.70;;;;;;5072826;28;20077;-58
2022/05/04 01:22:41;;;;;;;11.68;3.17;;;8.30;95.70;;;;;;5062475;28;20044;-58
2022/05/04 01:25:08;;;;;;;9.68;3.13;;;8.30;95.80;;;;;;5081697;28;20100;-57
2022/05/04 01:27:34;;;;;;;8.88;3.03;;;8.30;96.10;;;;;;5080258;28;20048;-58
2022/05/04 01:30:00;;;;;;;8.32;3.15;;;8.30;96.20;;;;;;5081997;28;20493;-58
2022/05/04 01:32:26;;;;;;;12.38;3.28;;;8.20;96.30;;;;;;5081088;28;20528;-57
2022/05/04 01:34:53;;;;;;;10.18;3.58;;;8.30;96.40;;;;;;5062608;28;20056;-57
2022/05/04 01:37:19;;;;;;;12.93;3.65;;;8.30;96.40;;;;;;5077866;28;20134;-57
2022/05/04 01:39:45;;;;;;;10.77;3.40;;;8.30;96.60;;;;;;5073158;28;20048;-57
2022/05/04 01:42:13;;;;;;;8.95;3.03;;;8.30;96.40;;;;;;5060127;28;20133;-56
2022/05/04 01:44:41;;;;;;;12.60;3.53;;;8.20;96.30;;;;;;5047820;28;20079;-57
2022/05/04 01:47:08;;;;;;;10.98;3.20;;;8.20;96.20;;;;;;5078753;28;20089;-56
2022/05/04 01:49:34;;;;;;;10.93;3.10;;;8.20;96.30;;;;;;5075669;27;20665;-57
2022/05/04 01:52:00;;;;;;;10.27;3.90;;;8.20;96.50;;;;;;5080136;28;20102;-57
2022/05/04 01:54:27;;;;;;;12.15;3.65;;;8.20;96.90;;;;;;5076522;28;20054;-58
2022/05/04 01:56:53;;;;;;;11.43;3.50;;;8.20;97.20;;;;;;5077256;28;20071;-56
2022/05/04 01:59:19;;;;;;;11.48;3.40;;;8.20;97.40;;;;;;5076495;28;20666;-56
2022/05/04 02:01:46;;;;;;;9.98;3.40;;;8.20;97.60;;;;;;5077496;28;20040;-58
2022/05/04 02:04:14;;;;;;;10.43;3.47;;;8.20;97.40;;;;;;5088375;28;20040;-57
2022/05/04 02:06:40;;;;;;;6.97;2.85;;;8.10;97.40;;;;;;5084911;27;20051;-57
2022/05/04 02:09:07;;;;;;;11.45;3.28;;;8.20;97.90;;;;;;5083766;28;20098;-56
2022/05/04 02:11:33;;;;;;;9.18;3.05;;;8.10;97.60;;;;;;5090977;28;20044;-57
2022/05/04 02:14:00;;;;;;;10.32;3.58;;;8.10;97.60;;;;;;5086726;28;20051;-58
2022/05/04 02:16:26;;;;;;;11.18;3.20;;;8.10;97.50;;;;;;5086384;28;20040;-57
2022/05/04 02:18:53;;;;;;;18.48;3.70;;;8.10;97.40;;;;;;5060272;28;20044;-58
2022/05/04 02:21:19;;;;;;;13.32;2.90;;;8.10;97.80;;;;;;5079100;28;20058;-57
2022/05/04 02:23:44;;;;;;;8.82;2.70;;;8.10;97.90;;;;;;5078581;28;20051;-57
2022/05/04 02:26:10;;;;;;;9.05;2.95;;;8.10;97.90;;;;;;5077372;27;20458;-58
2022/05/04 02:28:36;;;;;;;9.82;3.20;;;8.10;97.70;;;;;;5076798;28;20867;-57
2022/05/04 02:31:02;;;;;;;9.45;2.60;;;8.10;97.60;;;;;;5059885;28;23483;-57
2022/05/04 02:33:28;;;;;;;6.65;2.80;;;8.10;97.50;;;;;;5078740;28;20055;-56
2022/05/04 02:38:39;;;;;;;8.68;2.70;;;8.10;97.20;;;;;;5077257;28;20039;-57
2022/05/04 02:41:05;;;;;;;8.02;2.60;;;8.10;96.80;;;;;;5074711;28;20047;-56
2022/05/04 02:43:32;;;;;;;10.10;3.08;;;8.10;96.70;;;;;;5075623;28;20381;-57
2022/05/04 02:46:15;;;;;;;9.88;2.70;;;8.10;96.40;;;;;;5074453;28;20231;-57
2022/05/04 02:48:41;;;;;;;11.18;3.13;;;8.10;96.50;;;;;;5077289;28;20188;-57
2022/05/04 02:51:07;;;;;;;9.38;2.95;;;8.10;96.90;;;;;;5081496;28;20905;-57
2022/05/04 02:53:34;;;;;;;12.90;3.00;;;8.10;97.00;;;;;;5080146;28;20970;-58
2022/05/04 02:56:00;;;;;;;9.32;2.72;;;8.10;97.00;;;;;;5077883;28;20040;-57
2022/05/04 02:58:26;;;;;;;11.13;2.92;;;8.10;97.00;;;;;;5075090;27;20086;-56
2022/05/04 03:00:52;;;;;;;12.23;3.25;;;8.10;97.10;;;;;;5080107;28;20058;-57
2022/05/04 03:03:18;;;;;;;9.52;3.63;;;8.10;97.10;;;;;;5077277;28;20052;-56
2022/05/04 03:05:44;;;;;;;15.13;3.83;;;8.10;97.30;;;;;;5058124;28;20486;-58
2022/05/04 03:08:10;;;;;;;10.07;3.50;;;8.10;97.70;;;;;;5081203;28;20042;-57
2022/05/04 03:13:20;;;;;;;4.60;2.20;;;8.10;96.90;;;;;;5074562;28;20043;-58
2022/05/04 03:15:47;;;;;;;6.97;2.40;;;8.10;96.20;;;;;;5047909;28;20423;-58
2022/05/04 03:18:14;;;;;;;12.45;2.72;;;8.00;95.80;;;;;;5075877;28;20124;-58
2022/05/04 03:20:40;;;;;;;10.57;2.67;;;8.00;95.60;;;;;;5054954;28;20063;-57
2022/05/04 03:23:06;;;;;;;10.43;2.75;;;8.00;95.60;;;;;;5075456;28;20118;-58
2022/05/04 03:25:32;;;;;;;10.23;3.05;;;8.00;95.80;;;;;;5077636;28;20058;-58
2022/05/04 03:27:58;;;;;;;12.45;3.60;;;8.00;96.00;;;;;;5072282;28;20150;-57
2022/05/04 03:30:24;;;;;;;12.38;2.75;;;8.00;96.20;;;;;;5078854;28;20511;-58
2022/05/04 03:32:50;;;;;;;11.25;3.38;;;8.00;96.30;;;;;;5075929;28;20072;-56
2022/05/04 03:35:17;;;;;;;12.95;3.20;;;8.00;96.50;;;;;;5079154;28;20210;-57
2022/05/04 03:37:43;;;;;;;8.57;3.08;;;8.00;96.70;;;;;;5079785;28;20386;-57
2022/05/04 03:40:10;;;;;;;10.90;3.28;;;8.00;97.00;;;;;;5080074;28;20063;-58
2022/05/04 03:42:36;;;;;;;12.15;3.10;;;8.00;97.30;;;;;;5077177;28;20040;-56
2022/05/04 03:45:03;;;;;;;8.30;2.67;;;8.00;97.80;;;;;;5059397;28;20047;-57
2022/05/04 03:47:29;;;;;;;8.30;2.35;;;7.90;97.40;;;;;;5079716;28;20036;-57
2022/05/04 03:49:56;;;;;;;10.75;2.60;;;7.90;96.90;;;;;;5078019;28;20051;-58
2022/05/04 03:52:22;;;;;;;7.72;3.00;;;7.90;96.70;;;;;;5078979;28;20533;-58
2022/05/04 03:54:48;;;;;;;10.70;2.63;;;7.90;96.80;;;;;;5083634;28;20103;-57
2022/05/04 03:57:14;;;;;;;12.15;3.28;;;7.90;96.80;;;;;;5082285;28;20529;-56
2022/05/04 03:59:40;;;;;;;11.65;3.20;;;7.90;96.90;;;;;;5080670;28;20497;-57
2022/05/04 04:02:06;;;;;;;8.90;2.95;;;7.90;97.30;;;;;;5081860;27;20050;-56
2022/05/04 04:04:32;;;;;;;10.07;3.25;;;7.90;97.50;;;;;;5049774;28;20054;-57
2022/05/04 04:06:58;;;;;;;7.88;2.95;;;7.90;97.60;;;;;;5079174;28;20101;-56
2022/05/04 04:09:24;;;;;;;9.50;2.70;;;7.80;97.70;;;;;;5080323;28;20079;-56
2022/05/04 04:11:50;;;;;;;7.47;2.88;;;7.90;97.70;;;;;;5076643;27;20038;-56
2022/05/04 04:14:16;;;;;;;7.50;2.45;;;7.80;97.70;;;;;;5077862;28;20071;-58
2022/05/04 04:16:42;;;;;;;7.53;2.60;;;7.90;97.30;;;;;;5085270;27;20142;-58
2022/05/04 04:19:09;;;;;;;5.57;2.45;;;7.90;96.80;;;;;;5061800;28;20048;-57
2022/05/04 04:21:50;;;;;;;13.25;3.17;;;7.90;96.70;;;;;;5082328;28;20535;-57
2022/05/04 04:24:16;;;;;;;10.27;2.88;;;7.90;96.80;;;;;;5082208;28;20048;-58
2022/05/04 04:26:42;;;;;;;7.82;2.60;;;7.90;96.90;;;;;;5081671;27;20044;-57
2022/05/04 04:29:08;;;;;;;5.57;2.42;;;7.90;97.20;;;;;;5060464;28;20051;-58
2022/05/04 04:31:34;;;;;;;5.82;2.20;;;8.00;97.30;;;;;;5079130;28;20048;-58
2022/05/04 04:34:04;;;;;;;7.72;2.90;;;7.90;96.90;;;;;;5036124;28;20576;-56
2022/05/04 04:36:30;;;;;;;7.38;2.35;;;8.00;96.90;;;;;;5083473;28;20054;-58
2022/05/04 04:38:56;;;;;;;9.38;2.72;;;8.00;96.60;;;;;;5050176;28;20493;-56
2022/05/04 04:41:22;;;;;;;7.57;2.40;;;8.00;96.40;;;;;;5079792;28;20726;-57
2022/05/04 04:43:48;;;;;;;8.60;2.40;;;8.00;96.20;;;;;;5058565;28;20052;-58
2022/05/04 04:46:14;;;;;;;9.20;2.63;;;8.00;96.20;;;;;;5078645;28;20079;-57
2022/05/04 04:48:40;;;;;;;8.27;2.13;;;8.10;96.50;;;;;;5087642;28;20569;-58
2022/05/04 04:51:06;;;;;;;10.93;2.92;;;8.00;96.20;;;;;;5090616;28;20048;-56
2022/05/04 04:53:33;;;;;;;8.60;2.83;;;8.00;96.10;;;;;;5088935;28;20603;-57
2022/05/04 04:55:59;;;;;;;8.63;2.70;;;8.10;96.10;;;;;;5089296;28;20134;-57
2022/05/04 04:58:25;;;;;;;8.52;2.78;;;8.10;96.10;;;;;;5073600;28;20069;-58
2022/05/04 05:00:51;;;;;;;8.77;2.85;;;8.10;96.30;;;;;;5083483;28;20054;-56
2022/05/04 05:03:17;;;;;;;8.02;2.58;;;8.10;96.50;;;;;;5086726;28;20070;-57
2022/05/04 05:05:44;;;;;;;10.65;2.22;;;8.10;96.20;;;;;;5082659;28;20047;-59
2022/05/04 05:08:12;;;;;;;8.65;2.30;;;8.10;95.80;;;;;;5070640;28;20471;-56
2022/05/04 05:10:39;;;;;;;8.18;2.20;;;8.10;95.70;;;;;;5066825;28;20031;-57
2022/05/04 05:13:06;;;;;;;8.20;2.30;;;8.10;95.60;;;;;;5083939;28;20055;-57
2022/05/04 05:18:24;;;;;;;7.28;2.10;;;8.10;94.80;;;;;;5082655;28;20040;-59
2022/05/04 05:20:51;;;;;;;7.47;2.50;;;8.10;94.50;;;;;;5041553;28;20241;-57
2022/05/04 05:23:17;;;;;;;5.82;2.15;;;8.20;94.20;;;;;;5059811;28;20639;-57
2022/05/04 05:25:43;;;;;;;9.45;2.60;;;8.10;94.20;;;;;;5086095;27;20043;-57
2022/05/04 05:28:09;;;;;;;9.80;2.60;;;8.20;94.20;;;;;;5083224;28;20043;-58
2022/05/04 05:30:35;;;;;;;8.50;2.63;;;8.20;94.40;;;;;;5084397;28;20388;-58
2022/05/04 05:33:01;;;;;;;8.40;2.53;;;8.20;94.80;;;;;;5074650;28;20056;-58
2022/05/04 05:35:28;;;;;;;9.52;2.50;;;8.20;94.90;;;;;;5085087;27;20045;-59
2022/05/04 05:37:54;;;;;;;5.97;2.58;;;8.20;94.80;;;;;;5083560;28;20074;-57
2022/05/04 05:40:20;;;;;;;7.95;2.30;;;8.30;94.70;;;;;;5090605;28;20433;-58
2022/05/04 05:42:46;;;;;;;9.52;2.47;;;8.20;94.50;;;;;;5091519;28;20079;-56
2022/05/04 05:45:12;;;;;;;11.02;2.63;;;8.30;94.90;;;;;;5074168;28;20051;-58
2022/05/04 05:47:40;;;;;;;9.85;2.63;;;8.30;95.20;;;;;;5074768;28;20051;-56
2022/05/04 05:50:07;;;;;;;8.30;2.42;;;8.40;95.40;;;;;;5092668;28;20204;-57
2022/05/04 05:52:34;;;;;;;10.43;2.15;;;8.40;95.00;;;;;;5071982;28;20055;-57
2022/05/04 05:55:00;;;;;;;8.50;2.45;;;8.50;94.50;;;;;;5091796;27;20054;-57
2022/05/04 05:57:26;;;;;;;11.20;2.50;;;8.50;94.40;;;;;;5085360;28;20036;-58
2022/05/04 05:59:52;;;;;;;7.10;2.42;;;8.50;94.50;;;;;;5088589;28;20040;-58
2022/05/04 06:02:19;;;;;;;11.77;2.47;;;8.50;94.50;;;;;;5086582;28;20063;-58
2022/05/04 06:04:46;;;;;;;9.57;2.85;;;8.60;94.50;;;;;;5088855;28;20105;-57
2022/05/04 06:07:12;;;;;;;8.68;2.90;;;8.60;94.40;;;;;;5086409;28;20051;-57
2022/05/04 06:09:38;;;;;;;7.90;2.60;;;8.60;94.20;;;;;;5091895;28;20139;-57
2022/05/04 06:12:05;;;;;;;9.73;2.65;;;8.60;94.10;;;;;;5089066;28;20580;-57
2022/05/04 06:14:31;;;;;;;8.25;2.55;;;8.70;93.90;;;;;;5089444;28;20044;-57
2022/05/04 06:16:57;;;;;;;10.55;2.80;;;8.70;94.00;;;;;;5090622;28;20447;-57
2022/05/04 06:19:23;;;;;;;9.23;2.70;;;8.70;94.00;;;;;;5088883;28;20044;-58
2022/05/04 06:21:48;;;;;;;15.10;2.90;;;8.80;93.60;;;;;;5090427;28;20322;-59
2022/05/04 06:24:15;;;;;;;13.55;3.35;;;8.80;93.60;;;;;;5094241;28;20105;-57
2022/05/04 06:26:41;;;;;;;10.93;2.85;;;8.90;93.70;;;;;;5060013;28;20056;-57
2022/05/04 06:29:06;;;;;;;11.43;2.70;;;8.90;93.70;;;;;;5081526;28;20039;-57
2022/05/04 06:34:17;;;;;;;8.45;2.50;;;9.00;94.10;;;;;;5093510;28;20063;-58
2022/05/04 06:36:43;;;;;;;7.03;2.35;;;9.10;93.60;;;;;;5092381;28;20036;-55
2022/05/04 06:39:11;;;;;;;6.38;2.15;;;9.10;93.20;;;;;;5091890;28;20047;-57
2022/05/04 06:41:38;;;;;;;8.85;2.30;;;9.10;92.80;;;;;;5091026;28;20042;-58
2022/05/04 06:44:05;;;;;;;10.35;2.60;;;9.20;92.30;;;;;;5092768;28;20062;-59
2022/05/04 06:46:31;;;;;;;9.75;2.45;;;9.20;92.40;;;;;;5086883;28;20070;-58
2022/05/04 06:48:58;;;;;;;9.82;2.58;;;9.20;92.40;;;;;;5083582;28;20284;-58
2022/05/04 06:51:24;;;;;;;7.93;2.38;;;9.30;92.30;;;;;;5063812;28;20051;-58
2022/05/04 06:53:50;;;;;;;13.73;2.65;;;9.30;92.30;;;;;;5064668;28;20066;-58
2022/05/04 06:56:17;;;;;;;7.05;2.13;;;9.40;92.20;;;;;;5080211;28;20075;-58
2022/05/04 06:58:44;;;;;;;11.70;2.22;;;9.40;91.70;;;;;;5080359;28;20490;-58
2022/05/04 07:01:11;;;;;;;8.52;2.30;;;9.50;91.50;;;;;;5079312;28;20051;-59
2022/05/04 07:03:38;;;;;;;8.70;2.38;;;9.50;91.40;;;;;;5080138;28;20512;-58
2022/05/04 07:06:06;;;;;;;8.27;2.40;;;9.60;90.90;;;;;;5078293;28;20047;-58
2022/05/04 07:08:33;;;;;;;13.20;2.50;;;9.60;90.80;;;;;;5076473;27;20048;-57
2022/05/04 07:11:00;;;;;;;7.70;2.05;;;9.60;90.60;;;;;;5049138;28;20044;-58
2022/05/04 07:13:26;;;;;;;8.40;2.30;;;9.70;90.30;;;;;;5058820;28;23020;-58
2022/05/04 07:15:53;;;;;;;10.75;2.72;;;9.70;89.60;;;;;;5058651;28;20406;-58
2022/05/04 07:18:19;;;;;;;8.55;2.47;;;9.80;89.10;;;;;;5078850;28;20040;-59
2022/05/04 07:20:45;;;;;;;6.40;2.15;;;9.80;88.70;;;;;;5078855;28;20650;-59
2022/05/04 07:23:11;;;;;;;9.60;2.50;;;9.90;88.60;;;;;;5049816;28;20047;-58
2022/05/04 07:25:37;;;;;;;9.07;2.55;;;9.90;88.20;;;;;;5058424;28;20082;-58
2022/05/04 07:28:03;;;;;;;11.00;2.72;;;10.00;88.60;;;;;;5075058;28;20073;-59
2022/05/04 07:30:29;;;;;;;7.30;2.47;;;10.10;88.70;;;;;;5075824;28;20059;-58
2022/05/04 07:32:56;;;;;;;8.38;2.70;;;10.10;89.10;;;;;;5076971;28;20631;-58
2022/05/04 07:35:22;;;;;;;8.98;2.63;;;10.20;88.20;;;;;;5078237;28;20052;-57
2022/05/04 07:37:49;;;;;;;7.90;2.75;;;10.30;87.90;;;;;;5079061;28;20051;-59
2022/05/04 07:42:59;;;;;;;6.43;2.30;;;10.30;86.10;;;;;;5060267;28;20488;-57
2022/05/04 07:45:25;;;;;;;9.48;2.30;;;10.30;85.70;;;;;;5088862;28;20382;-58
2022/05/04 07:47:51;;;;;;;9.80;2.40;;;10.30;85.10;;;;;;5062939;28;20052;-58
2022/05/04 07:50:18;;;;;;;11.10;2.20;;;10.30;84.60;;;;;;5084056;28;20531;-57
2022/05/04 07:52:46;;;;;;;7.07;2.30;;;10.30;83.70;;;;;;5062699;28;20401;-57
2022/05/04 07:55:12;;;;;;;5.43;1.98;;;10.30;83.40;;;;;;5057649;28;20115;-57
2022/05/04 07:57:38;;;;;;;6.45;2.15;;;10.30;83.30;;;;;;5071784;28;20047;-59
2022/05/04 08:05:39;;;;;;;12.60;2.53;;;10.40;84.20;;;;;;5077312;28;20482;-57
2022/05/04 08:08:06;;;;;;;11.82;2.65;;;10.50;84.80;;;;;;5080092;28;20092;-59
2022/05/04 08:10:32;;;;;;;8.15;2.40;;;10.60;84.60;;;;;;5074430;28;20410;-58
2022/05/04 08:12:58;;;;;;;7.13;2.28;;;10.60;83.90;;;;;;5081661;28;20043;-58
2022/05/04 08:15:25;;;;;;;8.95;2.38;;;10.60;83.80;;;;;;5065774;28;20185;-58
2022/05/04 08:17:51;;;;;;;9.73;2.50;;;10.60;83.80;;;;;;5071717;28;20155;-58
2022/05/04 08:20:17;;;;;;;7.40;2.25;;;10.70;82.60;;;;;;5050737;28;20043;-59
2022/05/04 08:22:43;;;;;;;12.20;2.70;;;10.70;82.40;;;;;;5075893;28;20046;-59
2022/05/04 08:25:10;;;;;;;9.23;2.53;;;10.70;82.60;;;;;;5072998;28;20182;-58
2022/05/04 08:27:36;;;;;;;7.07;2.47;;;10.70;82.50;;;;;;5073842;28;20250;-59
2022/05/04 08:30:02;;;;;;;9.18;3.03;;;10.80;83.90;;;;;;5077844;28;20052;-58
2022/05/04 08:32:29;;;;;;;8.55;2.28;;;10.80;83.50;;;;;;5078087;28;20040;-59
2022/05/04 08:34:57;;;;;;;5.25;2.35;;;10.90;83.40;;;;;;5075699;28;20059;-58
2022/05/04 08:37:23;;;;;;;8.55;2.25;;;11.00;83.70;;;;;;5083208;28;20040;-57
2022/05/04 08:39:49;;;;;;;12.05;2.92;;;11.00;83.90;;;;;;5077899;28;20055;-58
2022/05/04 08:42:16;;;;;;;8.10;2.33;;;11.10;83.20;;;;;;5086809;28;20105;-58
2022/05/04 08:44:47;;;;;;;6.10;2.13;;;11.10;82.90;;;;;;5065073;28;20130;-57
2022/05/04 08:47:15;;;;;;;9.30;2.78;;;11.10;82.50;;;;;;5083001;27;22025;-59
2022/05/04 08:49:42;;;;;;;8.00;2.33;;;11.20;82.00;;;;;;5084293;27;20043;-58
2022/05/04 08:52:11;;;;;;;6.22;2.40;;;11.30;82.20;;;;;;5087431;28;20497;-59
2022/05/04 08:54:37;;;;;;;7.95;2.58;;;11.30;82.40;;;;;;5059871;28;20162;-58
2022/05/04 08:57:04;;;;;;;13.68;2.95;;;11.40;81.90;;;;;;5087274;28;20044;-58
2022/05/04 08:59:30;;;;;;;7.10;2.53;;;11.40;80.60;;;;;;5081276;28;20501;-58
2022/05/04 09:01:56;;;;;;;6.72;2.33;;;11.50;80.30;;;;;;5079462;28;20047;-57
2022/05/04 09:04:22;;;;;;;9.38;2.50;;;11.50;79.40;;;;;;5061718;28;20047;-57
2022/05/04 09:06:50;;;;;;;12.10;2.50;;;11.50;79.20;;;;;;5074168;28;20054;-59
2022/05/04 09:09:16;;;;;;;7.65;2.55;;;11.60;78.40;;;;;;5059052;28;20066;-58
2022/05/04 09:11:44;;;;;;;9.23;2.20;;;11.70;78.50;;;;;;5078902;27;20055;-59
2022/05/04 09:14:20;;;;;;;8.90;2.63;;;11.80;78.60;;;;;;5080853;28;20048;-59
2022/05/04 09:16:49;;;;;;;8.38;2.50;;;11.80;78.30;;;;;;5075507;28;20048;-58
2022/05/04 09:19:18;;;;;;;7.45;2.35;;;11.90;77.60;;;;;;5068939;28;20565;-57
2022/05/04 09:21:47;;;;;;;6.03;1.95;;;11.90;77.30;;;;;;5087977;28;20047;-59
2022/05/04 09:24:29;;;;;;;8.68;2.78;;;12.00;76.20;;;;;;5074690;27;20079;-58
2022/05/04 09:26:57;;;;;;;8.45;2.40;;;12.00;75.90;;;;;;5077483;28;20502;-58
2022/05/04 09:29:35;;;;;;;6.55;2.25;;;12.00;75.90;;;;;;5075708;28;20123;-58
2022/05/04 09:32:15;;;;;;;13.77;2.50;;;12.10;75.30;;;;;;5078215;27;20135;-58
2022/05/04 09:34:41;;;;;;;6.90;2.25;;;12.10;75.10;;;;;;5036403;28;20604;-59
2022/05/04 09:45:39;;;;;;;6.00;2.00;;;12.40;74.10;;;;;;5044131;28;20180;-57
2022/05/04 09:48:06;;;;;;;6.18;2.50;;;12.50;74.80;;;;;;5042942;28;20056;-59
2022/05/04 09:50:39;;;;;;;8.02;2.03;;;12.50;74.30;;;;;;5039817;28;20079;-59
2022/05/04 09:53:06;;;;;;;11.00;2.50;;;12.60;73.70;;;;;;5040881;28;20043;-58
2022/05/04 09:55:33;;;;;;;8.15;2.40;;;12.70;73.50;;;;;;5025518;28;20379;-59
2022/05/04 09:57:59;;;;;;;8.90;2.17;;;12.70;72.50;;;;;;5054133;28;20574;-59
2022/05/04 10:00:27;;;;;;;8.15;2.22;;;12.80;72.30;;;;;;5042018;28;20048;-59
2022/05/04 10:02:54;;;;;;;9.43;2.67;;;12.80;71.40;;;;;;5030990;28;20084;-59
2022/05/04 10:05:21;;;;;;;7.90;2.30;;;12.90;72.90;;;;;;5037531;28;20810;-59
2022/05/04 10:07:50;;;;;;;8.85;2.45;;;12.90;73.00;;;;;;5041991;28;20044;-59
2022/05/04 10:10:19;;;;;;;9.30;2.60;;;13.00;72.40;;;;;;5040208;28;20524;-59
2022/05/04 10:12:45;;;;;;;7.40;2.38;;;13.00;71.80;;;;;;5031676;28;20056;-58
2022/05/04 10:15:17;;;;;;;10.48;2.20;;;13.10;72.20;;;;;;5031208;28;20060;-59
2022/05/04 10:17:53;;;;;;;8.27;2.58;;;13.20;72.20;;;;;;5036651;28;20457;-59
2022/05/04 10:20:41;;;;;;;6.88;2.38;;;13.30;72.60;;;;;;5050952;28;20048;-58
2022/05/04 10:23:24;;;;;;;5.28;2.25;;;13.40;72.00;;;;;;5036159;28;20052;-59
2022/05/04 10:25:51;;;;;;;8.48;2.33;;;13.50;71.10;;;;;;5040148;28;20964;-59
2022/05/04 10:28:17;;;;;;;9.50;2.30;;;13.50;70.50;;;;;;5021912;28;20064;-58
2022/05/04 10:30:54;;;;;;;7.95;2.63;;;13.50;70.40;;;;;;5037633;28;20059;-59
2022/05/04 10:33:33;;;;;;;9.07;2.35;;;13.50;69.10;;;;;;5040449;28;20060;-58
2022/05/04 10:36:17;;;;;;;5.97;2.17;;;13.50;69.80;;;;;;5077179;28;20421;-59
2022/05/04 10:38:44;;;;;;;6.10;2.10;;;13.60;68.00;;;;;;5080449;28;20048;-58
2022/05/04 10:41:12;;;;;;;4.30;1.98;;;13.70;68.70;;;;;;5078962;28;20043;-58
2022/05/04 10:43:50;;;;;;;7.75;2.35;;;13.80;69.20;;;;;;5074520;28;20152;-59
2022/05/04 10:46:21;;;;;;;8.57;2.20;;;14.00;69.10;;;;;;5075719;28;20047;-59
2022/05/04 10:48:58;;;;;;;8.02;2.00;;;14.00;67.90;;;;;;5075706;28;20047;-58
2022/05/04 10:51:27;;;;;;;7.13;2.25;;;14.00;67.70;;;;;;5082832;28;20225;-58
2022/05/04 10:54:18;;;;;;;9.13;2.20;;;14.00;68.20;;;;;;5076387;28;20040;-59
2022/05/04 10:56:47;;;;;;;8.25;2.22;;;14.00;67.70;;;;;;5082694;28;20456;-58
2022/05/04 10:59:26;;;;;;;6.43;2.67;;;13.90;67.90;;;;;;5083602;28;20035;-58
2022/05/04 11:02:00;;;;;;;9.02;2.63;;;14.00;68.60;;;;;;5079343;28;20047;-59
2022/05/04 11:04:26;;;;;;;8.55;2.63;;;14.40;69.70;;;;;;5071546;28;20047;-59
2022/05/04 11:06:58;;;;;;;8.55;2.50;;;14.80;68.60;;;;;;5087785;28;20048;-58
2022/05/04 11:09:29;;;;;;;9.48;2.55;;;15.20;68.80;;;;;;5092574;28;20158;-59
2022/05/04 11:11:57;;;;;;;7.22;2.60;;;15.60;67.60;;;;;;5089645;28;20458;-60
2022/05/04 11:14:23;;;;;;;6.70;2.55;;;15.90;68.20;;;;;;5088524;28;20394;-58
2022/05/04 11:16:53;;;;;;;6.53;2.38;;;16.20;67.20;;;;;;5085867;28;20537;-59
2022/05/04 11:19:23;;;;;;;6.90;2.67;;;16.60;67.30;;;;;;5079617;28;20046;-58
2022/05/04 11:21:49;;;;;;;7.45;2.60;;;16.80;66.50;;;;;;5082722;28;20057;-59
2022/05/04 11:24:16;;;;;;;8.73;2.70;;;16.70;65.00;;;;;;5061235;28;20139;-58
2022/05/04 11:26:44;;;;;;;6.32;1.90;;;16.50;63.60;;;;;;5080553;28;20047;-58
2022/05/04 11:29:16;;;;;;;7.35;2.30;;;16.30;63.90;;;;;;5078698;28;20143;-58
2022/05/04 11:31:56;;;;;;;7.75;2.28;;;16.10;63.80;;;;;;5079809;28;20091;-57
2022/05/04 11:34:28;;;;;;;9.35;2.40;;;16.10;63.70;;;;;;5079759;28;20403;-57
2022/05/04 11:36:56;;;;;;;13.13;2.40;;;16.20;63.00;;;;;;5069328;28;20048;-58
2022/05/04 11:39:24;;;;;;;6.60;2.20;;;16.20;63.60;;;;;;5081271;28;20058;-58
2022/05/04 11:41:53;;;;;;;5.80;2.20;;;16.40;63.60;;;;;;5088909;28;20044;-58
2022/05/04 11:44:23;;;;;;;9.40;2.50;;;16.80;62.60;;;;;;5087022;28;20097;-58
2022/05/04 11:46:55;;;;;;;10.95;2.47;;;17.00;61.80;;;;;;5087747;28;20048;-57
2022/05/04 11:49:22;;;;;;;7.82;2.70;;;17.20;61.70;;;;;;5087185;28;20032;-59
2022/05/04 11:51:49;;;;;;;10.82;2.80;;;17.50;62.10;;;;;;5084702;28;20051;-58
2022/05/04 11:54:16;;;;;;;6.50;2.45;;;17.50;60.80;;;;;;5082434;28;20112;-58
2022/05/04 11:56:42;;;;;;;8.27;2.30;;;17.30;59.80;;;;;;5066265;28;20596;-57
2022/05/04 11:59:09;;;;;;;6.88;2.50;;;17.10;59.30;;;;;;5064141;28;20097;-58
2022/05/04 12:01:36;;;;;;;9.30;2.63;;;16.90;58.90;;;;;;5081392;28;20130;-58
2022/05/04 12:04:03;;;;;;;8.07;2.72;;;16.60;59.00;;;;;;5081244;28;20051;-57
2022/05/04 12:06:31;;;;;;;6.43;2.38;;;16.40;59.80;;;;;;5086163;28;20394;-57
2022/05/04 12:08:57;;;;;;;8.95;2.58;;;16.30;60.00;;;;;;5069645;28;20685;-57
2022/05/04 12:11:23;;;;;;;14.65;2.53;;;16.40;61.30;;;;;;5077670;28;20489;-59
2022/05/04 12:13:50;;;;;;;7.50;2.15;;;16.40;61.20;;;;;;5083973;28;20044;-59
2022/05/04 12:16:16;;;;;;;5.60;2.38;;;16.40;61.10;;;;;;5073686;28;20083;-58
2022/05/04 12:18:43;;;;;;;7.75;2.40;;;16.50;61.60;;;;;;5073590;28;20055;-59
2022/05/04 12:21:16;;;;;;;10.25;2.47;;;16.60;61.50;;;;;;5071460;28;20048;-58
2022/05/04 12:23:51;;;;;;;9.82;2.50;;;16.70;61.20;;;;;;5089885;28;20536;-59
2022/05/04 12:26:18;;;;;;;6.55;2.42;;;16.90;59.90;;;;;;5072458;28;20151;-58
2022/05/04 12:33:08;;;;;;;10.43;2.60;;;17.30;61.70;;;;;;5094154;28;20041;-58
2022/05/04 12:34:24;;;;;;;8.70;2.60;;;18.30;61.50;;;;;;5092438;28;20147;-59
2022/05/04 12:36:51;;;;;;;8.88;2.70;;;18.70;59.20;;;;;;5074900;28;20055;-58
2022/05/04 12:39:20;;;;;;;6.63;2.20;;;18.80;58.60;;;;;;5081651;28;20070;-59
2022/05/04 12:41:46;;;;;;;7.20;2.17;;;18.60;57.10;;;;;;5090980;28;20078;-59
2022/05/04 12:44:15;;;;;;;8.60;2.58;;;18.50;57.00;;;;;;5072623;28;20550;-58
2022/05/04 12:46:49;;;;;;;9.50;2.70;;;18.60;58.50;;;;;;5090661;28;20490;-59
2022/05/04 12:49:17;;;;;;;9.13;2.50;;;18.80;59.10;;;;;;5091273;28;20069;-58
2022/05/04 12:51:44;;;;;;;11.80;2.58;;;19.10;58.80;;;;;;5088416;28;20535;-58
2022/05/04 12:54:10;;;;;;;6.82;2.50;;;19.20;58.70;;;;;;5088687;28;20044;-59
2022/05/04 12:56:46;;;;;;;12.07;2.63;;;19.40;58.40;;;;;;5073840;28;20055;-59
2022/05/04 12:59:12;;;;;;;6.13;2.40;;;19.60;57.90;;;;;;5090612;28;20097;-58
2022/05/04 13:01:38;;;;;;;7.32;2.50;;;19.70;56.60;;;;;;5092423;28;20051;-59
2022/05/04 13:04:04;;;;;;;6.65;2.42;;;19.60;56.40;;;;;;5090504;28;20536;-59
2022/05/04 13:06:31;;;;;;;7.68;2.28;;;19.70;57.30;;;;;;5088644;28;20100;-58
2022/05/04 13:08:57;;;;;;;8.80;2.38;;;19.90;57.20;;;;;;5092163;28;20118;-58
2022/05/04 13:11:25;;;;;;;6.18;2.10;;;20.10;55.70;;;;;;5079622;28;20055;-58
2022/05/04 13:13:52;;;;;;;9.60;2.65;;;19.90;54.90;;;;;;5079660;28;20044;-60
2022/05/04 13:16:18;;;;;;;5.10;2.25;;;19.70;54.50;;;;;;5088764;28;20043;-58
2022/05/04 13:18:44;;;;;;;9.45;2.38;;;19.50;55.00;;;;;;5090290;28;20047;-58
2022/05/04 13:21:11;;;;;;;6.22;2.00;;;19.30;54.60;;;;;;5091259;28;20043;-59
2022/05/04 13:23:37;;;;;;;4.50;2.17;;;19.10;55.50;;;;;;5079753;28;21276;-59
2022/05/04 13:26:04;;;;;;;4.47;1.98;;;18.90;55.50;;;;;;5074704;28;20465;-60